sensor_id;sensor_type;location;lat;lon;timestamp;pressure;altitude;pressure_sealevel;temperature;humidity
5595;BME280;1003;48.002;7.788;2022-10-31T00:00:58;99263.41;;;10.00;100.00
5595;BME280;1003;48.002;7.788;2022-10-31T00:03:25;99255.88;;;10.00;100.00
5595;BME280;1003;48.002;7.788;2022-10-31T00:05:53;99255.06;;;10.01;100.00
5595;BME280;1003;48.002;7.788;2022-10-31T00:08:20;99249.19;;;9.99;100.00
5595;BME280;1003;48.002;7.788;2022-10-31T00:10:48;99252.56;;;9.98;100.00
5595;BME280;1003;48.002;7.788;2022-10-31T00:13:15;99252.53;;;9.99;100.00
5595;BME280;1003;48.002;7.788;2022-10-31T00:15:42;99252.53;;;10.01;100.00
5595;BME280;1003;48.002;7.788;2022-10-31T00:18:10;99243.34;;;9.98;100.00
5595;BME280;1003;48.002;7.788;2022-10-31T00:20:38;99227.47;;;9.96;100.00
5595;BME280;1003;48.002;7.788;2022-10-31T00:23:06;99220.75;;;9.97;100.00
5595;BME280;1003;48.002;7.788;2022-10-31T00:25:36;99219.09;;;9.96;100.00
5595;BME280;1003;48.002;7.788;2022-10-31T00:28:06;99222.41;;;10.01;100.00
5595;BME280;1003;48.002;7.788;2022-10-31T00:30:34;99209.88;;;10.01;100.00
5595;BME280;1003;48.002;7.788;2022-10-31T00:33:03;99211.50;;;10.00;100.00
5595;BME280;1003;48.002;7.788;2022-10-31T00:35:30;99205.59;;;10.06;100.00
5595;BME280;1003;48.002;7.788;2022-10-31T00:37:58;99205.59;;;10.09;100.00
5595;BME280;1003;48.002;7.788;2022-10-31T00:40:25;99208.19;;;10.02;100.00
5595;BME280;1003;48.002;7.788;2022-10-31T00:42:52;99209.91;;;9.93;100.00
5595;BME280;1003;48.002;7.788;2022-10-31T00:45:20;99228.38;;;9.85;100.00
5595;BME280;1003;48.002;7.788;2022-10-31T00:47:47;99225.06;;;9.73;100.00
5595;BME280;1003;48.002;7.788;2022-10-31T00:50:14;99230.16;;;9.66;100.00
5595;BME280;1003;48.002;7.788;2022-10-31T00:52:41;99237.72;;;9.60;100.00
5595;BME280;1003;48.002;7.788;2022-10-31T00:55:08;99245.25;;;9.57;100.00
5595;BME280;1003;48.002;7.788;2022-10-31T00:57:35;99252.81;;;9.46;100.00
5595;BME280;1003;48.002;7.788;2022-10-31T01:00:03;99262.91;;;9.43;100.00
5595;BME280;1003;48.002;7.788;2022-10-31T01:02:32;99283.00;;;9.37;100.00
5595;BME280;1003;48.002;7.788;2022-10-31T01:04:59;99295.53;;;9.37;100.00
5595;BME280;1003;48.002;7.788;2022-10-31T01:07:26;99403.38;;;9.43;100.00
5595;BME280;1003;48.002;7.788;2022-10-31T01:09:53;99421.75;;;9.36;100.00
5595;BME280;1003;48.002;7.788;2022-10-31T01:12:20;99425.97;;;9.28;100.00
5595;BME280;1003;48.002;7.788;2022-10-31T01:14:47;99438.50;;;9.18;100.00
5595;BME280;1003;48.002;7.788;2022-10-31T01:17:14;99443.53;;;9.14;100.00
5595;BME280;1003;48.002;7.788;2022-10-31T01:19:42;99454.38;;;9.13;100.00
5595;BME280;1003;48.002;7.788;2022-10-31T01:22:09;99459.41;;;9.05;100.00
5595;BME280;1003;48.002;7.788;2022-10-31T01:24:36;99466.91;;;9.08;100.00
5595;BME280;1003;48.002;7.788;2022-10-31T01:27:04;99486.97;;;9.01;100.00
5595;BME280;1003;48.002;7.788;2022-10-31T01:29:30;99507.84;;;8.97;100.00
5595;BME280;1003;48.002;7.788;2022-10-31T01:31:57;99512.03;;;8.91;100.00
5595;BME280;1003;48.002;7.788;2022-10-31T01:34:25;99520.38;;;8.90;100.00
5595;BME280;1003;48.002;7.788;2022-10-31T01:36:53;99517.06;;;8.94;100.00
5595;BME280;1003;48.002;7.788;2022-10-31T01:39:20;99517.06;;;8.99;100.00
5595;BME280;1003;48.002;7.788;2022-10-31T01:41:51;99519.53;;;8.93;100.00
5595;BME280;1003;48.002;7.788;2022-10-31T01:44:54;99521.22;;;8.91;100.00
5595;BME280;1003;48.002;7.788;2022-10-31T01:47:34;99532.91;;;8.92;100.00
5595;BME280;1003;48.002;7.788;2022-10-31T01:50:13;99531.25;;;8.97;100.00
5595;BME280;1003;48.002;7.788;2022-10-31T01:52:45;99539.63;;;9.01;100.00
5595;BME280;1003;48.002;7.788;2022-10-31T01:55:18;99553.84;;;9.05;100.00
5595;BME280;1003;48.002;7.788;2022-10-31T01:57:51;99544.66;;;9.05;100.00
5595;BME280;1003;48.002;7.788;2022-10-31T02:00:21;99553.84;;;9.08;100.00
5595;BME280;1003;48.002;7.788;2022-10-31T02:02:50;99561.34;;;9.09;100.00
5595;BME280;1003;48.002;7.788;2022-10-31T02:05:23;99591.47;;;9.11;100.00
5595;BME280;1003;48.002;7.788;2022-10-31T02:07:57;99586.47;;;9.11;100.00
5595;BME280;1003;48.002;7.788;2022-10-31T02:10:26;99595.66;;;9.12;100.00
5595;BME280;1003;48.002;7.788;2022-10-31T02:12:58;99595.66;;;9.10;100.00
5595;BME280;1003;48.002;7.788;2022-10-31T02:15:26;99614.88;;;9.11;100.00
5595;BME280;1003;48.002;7.788;2022-10-31T02:17:55;99639.13;;;9.12;100.00
5595;BME280;1003;48.002;7.788;2022-10-31T02:20:25;99649.19;;;9.22;100.00
5595;BME280;1003;48.002;7.788;2022-10-31T02:23:33;99649.16;;;9.25;100.00
5595;BME280;1003;48.002;7.788;2022-10-31T02:26:49;99659.19;;;9.18;100.00
5595;BME280;1003;48.002;7.788;2022-10-31T02:32:50;99678.34;;;9.03;100.00
5595;BME280;1003;48.002;7.788;2022-10-31T02:35:53;99689.22;;;9.00;100.00
5595;BME280;1003;48.002;7.788;2022-10-31T02:38:34;99684.19;;;8.97;100.00
5595;BME280;1003;48.002;7.788;2022-10-31T02:41:14;99685.84;;;8.95;100.00
5595;BME280;1003;48.002;7.788;2022-10-31T02:43:59;99690.06;;;9.01;100.00
5595;BME280;1003;48.002;7.788;2022-10-31T02:46:37;99691.69;;;8.97;100.00
5595;BME280;1003;48.002;7.788;2022-10-31T02:49:13;99699.19;;;8.91;100.00
5595;BME280;1003;48.002;7.788;2022-10-31T02:51:43;99704.22;;;8.88;100.00
5595;BME280;1003;48.002;7.788;2022-10-31T02:54:24;99705.88;;;8.89;100.00
5595;BME280;1003;48.002;7.788;2022-10-31T02:56:58;99723.47;;;8.93;100.00
5595;BME280;1003;48.002;7.788;2022-10-31T02:59:26;99736.84;;;8.97;100.00
5595;BME280;1003;48.002;7.788;2022-10-31T03:02:18;99738.50;;;8.97;100.00
5595;BME280;1003;48.002;7.788;2022-10-31T03:05:29;99742.66;;;8.88;100.00
5595;BME280;1003;48.002;7.788;2022-10-31T03:08:07;99760.16;;;8.87;100.00
5595;BME280;1003;48.002;7.788;2022-10-31T03:10:44;99764.38;;;8.88;100.00
5595;BME280;1003;48.002;7.788;2022-10-31T03:13:21;99773.56;;;8.90;100.00
5595;BME280;1003;48.002;7.788;2022-10-31T03:15:55;99779.41;;;8.88;100.00
5595;BME280;1003;48.002;7.788;2022-10-31T03:18:36;99796.94;;;8.86;100.00
5595;BME280;1003;48.002;7.788;2022-10-31T03:21:12;99804.44;;;8.86;100.00
5595;BME280;1003;48.002;7.788;2022-10-31T03:23:44;99802.75;;;8.81;100.00
5595;BME280;1003;48.002;7.788;2022-10-31T03:26:15;99816.91;;;8.74;100.00
5595;BME280;1003;48.002;7.788;2022-10-31T03:28:48;99822.72;;;8.70;100.00
5595;BME280;1003;48.002;7.788;2022-10-31T03:31:25;99846.09;;;8.67;100.00
5595;BME280;1003;48.002;7.788;2022-10-31T03:33:56;99849.41;;;8.65;100.00
5595;BME280;1003;48.002;7.788;2022-10-31T03:36:29;99855.25;;;8.62;100.00
5595;BME280;1003;48.002;7.788;2022-10-31T03:39:01;99819.28;;;8.60;100.00
5595;BME280;1003;48.002;7.788;2022-10-31T03:41:38;99817.63;;;8.61;100.00
5595;BME280;1003;48.002;7.788;2022-10-31T03:44:11;99826.84;;;8.63;100.00
5595;BME280;1003;48.002;7.788;2022-10-31T03:46:41;99837.75;;;8.72;100.00
5595;BME280;1003;48.002;7.788;2022-10-31T03:49:09;99846.19;;;8.80;100.00
5595;BME280;1003;48.002;7.788;2022-10-31T03:51:45;99855.38;;;8.78;100.00
5595;BME280;1003;48.002;7.788;2022-10-31T03:54:24;99868.69;;;8.74;100.00
5595;BME280;1003;48.002;7.788;2022-10-31T03:56:56;99873.63;;;8.64;100.00
5595;BME280;1003;48.002;7.788;2022-10-31T03:59:30;99884.47;;;8.63;100.00
5595;BME280;1003;48.002;7.788;2022-10-31T04:02:05;99885.28;;;8.61;100.00
5595;BME280;1003;48.002;7.788;2022-10-31T04:04:35;99903.69;;;8.63;100.00
5595;BME280;1003;48.002;7.788;2022-10-31T04:07:06;99902.84;;;8.62;100.00
5595;BME280;1003;48.002;7.788;2022-10-31T04:09:40;99907.91;;;8.67;100.00
5595;BME280;1003;48.002;7.788;2022-10-31T04:12:12;99899.53;;;8.65;100.00
5595;BME280;1003;48.002;7.788;2022-10-31T04:14:44;99906.19;;;8.64;100.00
5595;BME280;1003;48.002;7.788;2022-10-31T04:17:17;99911.22;;;8.64;100.00
5595;BME280;1003;48.002;7.788;2022-10-31T04:19:45;99917.94;;;8.67;100.00
5595;BME280;1003;48.002;7.788;2022-10-31T04:22:14;99926.28;;;8.71;100.00
5595;BME280;1003;48.002;7.788;2022-10-31T04:24:41;99943.06;;;8.73;100.00
5595;BME280;1003;48.002;7.788;2022-10-31T04:27:08;99951.41;;;8.77;100.00
5595;BME280;1003;48.002;7.788;2022-10-31T04:29:35;99958.13;;;8.79;100.00
5595;BME280;1003;48.002;7.788;2022-10-31T04:32:02;99964.81;;;8.79;100.00
5595;BME280;1003;48.002;7.788;2022-10-31T04:34:29;99962.31;;;8.77;100.00
5595;BME280;1003;48.002;7.788;2022-10-31T04:36:56;99974.69;;;8.63;100.00
5595;BME280;1003;48.002;7.788;2022-10-31T04:39:24;99988.03;;;8.62;100.00
5595;BME280;1003;48.002;7.788;2022-10-31T04:41:51;99989.66;;;8.56;100.00
5595;BME280;1003;48.002;7.788;2022-10-31T04:44:18;100002.13;;;8.51;100.00
5595;BME280;1003;48.002;7.788;2022-10-31T04:46:45;99996.28;;;8.52;100.00
5595;BME280;1003;48.002;7.788;2022-10-31T04:49:12;100006.31;;;8.52;100.00
5595;BME280;1003;48.002;7.788;2022-10-31T04:51:39;100033.88;;;8.54;100.00
5595;BME280;1003;48.002;7.788;2022-10-31T04:54:07;100033.03;;;8.53;100.00
5595;BME280;1003;48.002;7.788;2022-10-31T04:56:35;100038.03;;;8.50;100.00
5595;BME280;1003;48.002;7.788;2022-10-31T04:59:02;100037.97;;;8.47;100.00
5595;BME280;1003;48.002;7.788;2022-10-31T05:01:29;100051.34;;;8.46;100.00
5595;BME280;1003;48.002;7.788;2022-10-31T05:03:56;100046.28;;;8.43;100.00
5595;BME280;1003;48.002;7.788;2022-10-31T05:06:23;100042.09;;;8.42;100.00
5595;BME280;1003;48.002;7.788;2022-10-31T05:08:50;100053.78;;;8.45;100.00
5595;BME280;1003;48.002;7.788;2022-10-31T05:11:18;100050.44;;;8.44;100.00
5595;BME280;1003;48.002;7.788;2022-10-31T05:13:46;100052.13;;;8.44;100.00
5595;BME280;1003;48.002;7.788;2022-10-31T05:16:13;100057.13;;;8.44;100.00
5595;BME280;1003;48.002;7.788;2022-10-31T05:18:40;100070.53;;;8.46;100.00
5595;BME280;1003;48.002;7.788;2022-10-31T05:21:07;100074.72;;;8.48;100.00
5595;BME280;1003;48.002;7.788;2022-10-31T05:23:34;100076.47;;;8.54;100.00
5595;BME280;1003;48.002;7.788;2022-10-31T05:26:01;100088.22;;;8.56;100.00
5595;BME280;1003;48.002;7.788;2022-10-31T05:28:28;100095.69;;;8.55;100.00
5595;BME280;1003;48.002;7.788;2022-10-31T05:30:56;100097.41;;;8.56;100.00
5595;BME280;1003;48.002;7.788;2022-10-31T05:33:23;100104.09;;;8.60;100.00
5595;BME280;1003;48.002;7.788;2022-10-31T05:35:50;100119.19;;;8.63;100.00
5595;BME280;1003;48.002;7.788;2022-10-31T05:38:17;100116.69;;;8.63;100.00
5595;BME280;1003;48.002;7.788;2022-10-31T05:40:44;100124.22;;;8.66;100.00
5595;BME280;1003;48.002;7.788;2022-10-31T05:43:11;100135.19;;;8.73;100.00
5595;BME280;1003;48.002;7.788;2022-10-31T05:45:38;100131.78;;;8.69;100.00
5595;BME280;1003;48.002;7.788;2022-10-31T05:48:08;100130.94;;;8.67;100.00
5595;BME280;1003;48.002;7.788;2022-10-31T05:50:35;100121.72;;;8.66;100.00
5595;BME280;1003;48.002;7.788;2022-10-31T05:53:05;100130.13;;;8.68;100.00
5595;BME280;1003;48.002;7.788;2022-10-31T05:55:33;100136.81;;;8.71;100.00
5595;BME280;1003;48.002;7.788;2022-10-31T05:58:00;100145.22;;;8.73;100.00
5595;BME280;1003;48.002;7.788;2022-10-31T06:00:27;100155.25;;;8.76;100.00
5595;BME280;1003;48.002;7.788;2022-10-31T06:02:58;100157.00;;;8.80;100.00
5595;BME280;1003;48.002;7.788;2022-10-31T06:05:27;100183.84;;;8.88;100.00
5595;BME280;1003;48.002;7.788;2022-10-31T06:07:55;100198.19;;;8.99;100.00
5595;BME280;1003;48.002;7.788;2022-10-31T06:10:23;100205.81;;;9.09;100.00
5595;BME280;1003;48.002;7.788;2022-10-31T06:12:50;100216.81;;;9.19;100.00
5595;BME280;1003;48.002;7.788;2022-10-31T06:15:18;100221.06;;;9.25;100.00
5595;BME280;1003;48.002;7.788;2022-10-31T06:17:45;100221.13;;;9.31;100.00
5595;BME280;1003;48.002;7.788;2022-10-31T06:20:12;100227.03;;;9.34;100.00
5595;BME280;1003;48.002;7.788;2022-10-31T06:22:41;100227.94;;;9.38;100.00
5595;BME280;1003;48.002;7.788;2022-10-31T06:25:08;100230.50;;;9.44;100.00
5595;BME280;1003;48.002;7.788;2022-10-31T06:27:35;100246.47;;;9.49;100.00
5595;BME280;1003;48.002;7.788;2022-10-31T06:30:03;100258.25;;;9.56;100.00
5595;BME280;1003;48.002;7.788;2022-10-31T06:32:30;100270.91;;;9.64;100.00
5595;BME280;1003;48.002;7.788;2022-10-31T06:34:57;100421.59;;;9.71;100.00
5595;BME280;1003;48.002;7.788;2022-10-31T06:37:24;100424.25;;;9.81;100.00
5595;BME280;1003;48.002;7.788;2022-10-31T06:39:52;100435.22;;;9.89;100.00
5595;BME280;1003;48.002;7.788;2022-10-31T06:42:19;100457.09;;;9.97;100.00
5595;BME280;1003;48.002;7.788;2022-10-31T06:44:46;100461.38;;;10.06;100.00
5595;BME280;1003;48.002;7.788;2022-10-31T06:47:13;100483.25;;;10.13;100.00
5595;BME280;1003;48.002;7.788;2022-10-31T06:49:40;100489.22;;;10.21;100.00
5595;BME280;1003;48.002;7.788;2022-10-31T06:52:07;100502.78;;;10.31;100.00
5595;BME280;1003;48.002;7.788;2022-10-31T06:54:34;100521.38;;;10.44;100.00
5595;BME280;1003;48.002;7.788;2022-10-31T06:57:03;100537.44;;;10.55;100.00
5595;BME280;1003;48.002;7.788;2022-10-31T06:59:30;100561.03;;;10.66;100.00
5595;BME280;1003;48.002;7.788;2022-10-31T07:01:58;100565.34;;;10.78;100.00
5595;BME280;1003;48.002;7.788;2022-10-31T07:04:25;100593.16;;;10.92;100.00
5595;BME280;1003;48.002;7.788;2022-10-31T07:06:53;100619.25;;;11.00;100.00
5595;BME280;1003;48.002;7.788;2022-10-31T07:09:21;100640.22;;;10.99;100.00
5595;BME280;1003;48.002;7.788;2022-10-31T07:11:53;100669.59;;;11.01;100.00
5595;BME280;1003;48.002;7.788;2022-10-31T07:14:22;100702.16;;;10.91;100.00
5595;BME280;1003;48.002;7.788;2022-10-31T07:16:50;100734.84;;;10.89;100.00
5595;BME280;1003;48.002;7.788;2022-10-31T07:19:18;100760.63;;;10.74;100.00
5595;BME280;1003;48.002;7.788;2022-10-31T07:21:45;100811.84;;;10.80;100.00
5595;BME280;1003;48.002;7.788;2022-10-31T07:24:12;100831.19;;;10.84;100.00
5595;BME280;1003;48.002;7.788;2022-10-31T07:26:39;100853.94;;;10.91;100.00
5595;BME280;1003;48.002;7.788;2022-10-31T07:29:08;100876.06;;;11.12;100.00
5595;BME280;1003;48.002;7.788;2022-10-31T07:31:36;100897.13;;;11.17;100.00
5595;BME280;1003;48.002;7.788;2022-10-31T07:34:03;100928.31;;;11.28;100.00
5595;BME280;1003;48.002;7.788;2022-10-31T07:36:30;100930.09;;;11.34;100.00
5595;BME280;1003;48.002;7.788;2022-10-31T07:38:57;100951.22;;;11.45;100.00
5595;BME280;1003;48.002;7.788;2022-10-31T07:41:25;100966.78;;;11.74;100.00
5595;BME280;1003;48.002;7.788;2022-10-31T07:43:52;100982.19;;;11.94;100.00
5595;BME280;1003;48.002;7.788;2022-10-31T07:46:19;101005.19;;;12.20;100.00
5595;BME280;1003;48.002;7.788;2022-10-31T07:48:47;101018.16;;;12.48;100.00
5595;BME280;1003;48.002;7.788;2022-10-31T07:51:14;101038.50;;;12.63;100.00
5595;BME280;1003;48.002;7.788;2022-10-31T07:53:41;101069.03;;;12.86;100.00
5595;BME280;1003;48.002;7.788;2022-10-31T07:56:08;101057.41;;;12.99;100.00
5595;BME280;1003;48.002;7.788;2022-10-31T07:58:35;101087.06;;;13.20;100.00
5595;BME280;1003;48.002;7.788;2022-10-31T08:01:02;101108.31;;;13.38;100.00
5595;BME280;1003;48.002;7.788;2022-10-31T08:03:29;101155.69;;;13.59;100.00
5595;BME280;1003;48.002;7.788;2022-10-31T08:05:58;101191.25;;;13.81;100.00
5595;BME280;1003;48.002;7.788;2022-10-31T08:08:25;101220.91;;;13.99;100.00
5595;BME280;1003;48.002;7.788;2022-10-31T08:10:53;101240.28;;;13.95;100.00
5595;BME280;1003;48.002;7.788;2022-10-31T08:13:21;101234.47;;;14.05;100.00
5595;BME280;1003;48.002;7.788;2022-10-31T08:15:48;101155.06;;;13.86;100.00
5595;BME280;1003;48.002;7.788;2022-10-31T08:18:17;101010.19;;;13.97;100.00
5595;BME280;1003;48.002;7.788;2022-10-31T08:20:44;100832.41;;;14.02;100.00
5595;BME280;1003;48.002;7.788;2022-10-31T08:23:13;100573.66;;;14.15;100.00
5595;BME280;1003;48.002;7.788;2022-10-31T08:25:42;100519.72;;;14.21;100.00
5595;BME280;1003;48.002;7.788;2022-10-31T08:28:10;100518.84;;;14.27;100.00
5595;BME280;1003;48.002;7.788;2022-10-31T08:30:39;100532.31;;;14.27;100.00
5595;BME280;1003;48.002;7.788;2022-10-31T08:33:11;100503.56;;;14.45;100.00
5595;BME280;1003;48.002;7.788;2022-10-31T08:35:39;100495.19;;;14.48;100.00
5595;BME280;1003;48.002;7.788;2022-10-31T08:38:08;100511.94;;;14.65;100.00
5595;BME280;1003;48.002;7.788;2022-10-31T08:40:38;100489.91;;;14.81;100.00
5595;BME280;1003;48.002;7.788;2022-10-31T08:43:12;100478.78;;;15.05;100.00
5595;BME280;1003;48.002;7.788;2022-10-31T08:45:41;100500.63;;;15.15;100.00
5595;BME280;1003;48.002;7.788;2022-10-31T08:48:11;100466.81;;;15.24;100.00
5595;BME280;1003;48.002;7.788;2022-10-31T08:50:39;100245.69;;;15.17;100.00
5595;BME280;1003;48.002;7.788;2022-10-31T08:53:11;100198.31;;;15.22;100.00
5595;BME280;1003;48.002;7.788;2022-10-31T08:55:41;100150.84;;;15.37;100.00
5595;BME280;1003;48.002;7.788;2022-10-31T08:58:12;100127.63;;;15.67;100.00
5595;BME280;1003;48.002;7.788;2022-10-31T09:00:39;100103.56;;;15.91;100.00
5595;BME280;1003;48.002;7.788;2022-10-31T09:03:10;100077.75;;;16.17;100.00
5595;BME280;1003;48.002;7.788;2022-10-31T09:05:37;100061.53;;;16.26;100.00
5595;BME280;1003;48.002;7.788;2022-10-31T09:08:06;100026.47;;;16.45;100.00
5595;BME280;1003;48.002;7.788;2022-10-31T09:10:35;99983.19;;;16.51;100.00
5595;BME280;1003;48.002;7.788;2022-10-31T09:13:07;99930.59;;;16.59;100.00
5595;BME280;1003;48.002;7.788;2022-10-31T09:15:37;99875.38;;;16.67;100.00
5595;BME280;1003;48.002;7.788;2022-10-31T09:18:05;99822.53;;;16.85;100.00
5595;BME280;1003;48.002;7.788;2022-10-31T09:20:34;99783.84;;;17.08;100.00
5595;BME280;1003;48.002;7.788;2022-10-31T09:23:04;99721.88;;;17.13;100.00
5595;BME280;1003;48.002;7.788;2022-10-31T09:25:33;99658.44;;;17.12;100.00
5595;BME280;1003;48.002;7.788;2022-10-31T09:28:04;99604.34;;;17.08;100.00
5595;BME280;1003;48.002;7.788;2022-10-31T09:30:34;99551.59;;;16.88;100.00
5595;BME280;1003;48.002;7.788;2022-10-31T09:33:04;99519.91;;;16.72;100.00
5595;BME280;1003;48.002;7.788;2022-10-31T09:35:32;99518.13;;;16.75;100.00
5595;BME280;1003;48.002;7.788;2022-10-31T09:38:02;99509.22;;;16.61;100.00
5595;BME280;1003;48.002;7.788;2022-10-31T09:40:35;99510.28;;;16.83;100.00
5595;BME280;1003;48.002;7.788;2022-10-31T09:43:15;99501.91;;;17.08;100.00
5595;BME280;1003;48.002;7.788;2022-10-31T09:45:54;99505.22;;;17.10;100.00
5595;BME280;1003;48.002;7.788;2022-10-31T09:48:40;99499.59;;;17.00;100.00
5595;BME280;1003;48.002;7.788;2022-10-31T09:51:16;99498.56;;;17.05;100.00
5595;BME280;1003;48.002;7.788;2022-10-31T09:53:48;99498.34;;;17.13;100.00
5595;BME280;1003;48.002;7.788;2022-10-31T09:56:20;99497.03;;;17.28;100.00
5595;BME280;1003;48.002;7.788;2022-10-31T09:58:53;99496.22;;;17.27;100.00
5595;BME280;1003;48.002;7.788;2022-10-31T10:01:34;99470.31;;;17.41;100.00
5595;BME280;1003;48.002;7.788;2022-10-31T10:04:28;99468.94;;;17.57;100.00
5595;BME280;1003;48.002;7.788;2022-10-31T10:06:58;99465.94;;;17.46;100.00
5595;BME280;1003;48.002;7.788;2022-10-31T10:09:29;99454.00;;;17.73;100.00
5595;BME280;1003;48.002;7.788;2022-10-31T10:12:09;99440.22;;;18.04;100.00
5595;BME280;1003;48.002;7.788;2022-10-31T10:15:01;99427.34;;;18.08;100.00
5595;BME280;1003;48.002;7.788;2022-10-31T10:17:39;99400.44;;;18.01;100.00
5595;BME280;1003;48.002;7.788;2022-10-31T10:20:24;99376.97;;;17.46;100.00
5595;BME280;1003;48.002;7.788;2022-10-31T10:23:13;99375.41;;;17.42;100.00
5595;BME280;1003;48.002;7.788;2022-10-31T10:25:47;99371.00;;;17.24;100.00
5595;BME280;1003;48.002;7.788;2022-10-31T10:28:23;99374.03;;;17.09;100.00
5595;BME280;1003;48.002;7.788;2022-10-31T10:30:59;99375.03;;;17.04;100.00
5595;BME280;1003;48.002;7.788;2022-10-31T10:33:33;99389.06;;;17.15;100.00
5595;BME280;1003;48.002;7.788;2022-10-31T10:36:10;99392.66;;;17.09;100.00
5595;BME280;1003;48.002;7.788;2022-10-31T10:38:50;99405.66;;;17.25;100.00
5595;BME280;1003;48.002;7.788;2022-10-31T10:41:28;99485.38;;;17.47;100.00
5595;BME280;1003;48.002;7.788;2022-10-31T10:43:56;99497.19;;;17.48;100.00
5595;BME280;1003;48.002;7.788;2022-10-31T10:46:34;99485.19;;;17.27;100.00
5595;BME280;1003;48.002;7.788;2022-10-31T10:49:32;99480.41;;;17.44;100.00
5595;BME280;1003;48.002;7.788;2022-10-31T10:52:10;99485.84;;;17.34;100.00
5595;BME280;1003;48.002;7.788;2022-10-31T10:54:54;99475.19;;;17.22;100.00
5595;BME280;1003;48.002;7.788;2022-10-31T10:57:36;99467.75;;;17.16;100.00
5595;BME280;1003;48.002;7.788;2022-10-31T11:00:19;99470.59;;;17.34;100.00
5595;BME280;1003;48.002;7.788;2022-10-31T11:02:48;99481.94;;;17.48;100.00
5595;BME280;1003;48.002;7.788;2022-10-31T11:05:24;99472.72;;;17.71;100.00
5595;BME280;1003;48.002;7.788;2022-10-31T11:07:52;99453.56;;;17.86;100.00
5595;BME280;1003;48.002;7.788;2022-10-31T11:10:19;99437.59;;;18.05;100.00
5595;BME280;1003;48.002;7.788;2022-10-31T11:13:02;99399.78;;;18.20;100.00
5595;BME280;1003;48.002;7.788;2022-10-31T11:15:35;99343.31;;;17.88;100.00
5595;BME280;1003;48.002;7.788;2022-10-31T11:18:05;99300.59;;;17.96;100.00
5595;BME280;1003;48.002;7.788;2022-10-31T11:20:34;99286.75;;;18.25;100.00
5595;BME280;1003;48.002;7.788;2022-10-31T11:23:18;99264.72;;;18.46;100.00
5595;BME280;1003;48.002;7.788;2022-10-31T11:25:54;99245.63;;;18.77;100.00
5595;BME280;1003;48.002;7.788;2022-10-31T11:28:22;99197.13;;;18.80;100.00
5595;BME280;1003;48.002;7.788;2022-10-31T11:30:53;99162.84;;;18.87;100.00
5595;BME280;1003;48.002;7.788;2022-10-31T11:33:30;99121.31;;;19.23;100.00
5595;BME280;1003;48.002;7.788;2022-10-31T11:36:00;99068.00;;;19.54;100.00
5595;BME280;1003;48.002;7.788;2022-10-31T11:38:34;99002.31;;;19.77;100.00
5595;BME280;1003;48.002;7.788;2022-10-31T11:41:13;98963.09;;;19.62;100.00
5595;BME280;1003;48.002;7.788;2022-10-31T11:43:50;98925.69;;;19.45;100.00
5595;BME280;1003;48.002;7.788;2022-10-31T11:46:30;98891.00;;;19.43;100.00
5595;BME280;1003;48.002;7.788;2022-10-31T11:49:01;98872.78;;;19.33;100.00
5595;BME280;1003;48.002;7.788;2022-10-31T11:51:33;98844.06;;;19.29;100.00
5595;BME280;1003;48.002;7.788;2022-10-31T11:54:04;98810.53;;;19.37;100.00
5595;BME280;1003;48.002;7.788;2022-10-31T11:56:42;98776.75;;;19.33;100.00
5595;BME280;1003;48.002;7.788;2022-10-31T11:59:25;98742.47;;;19.23;100.00
5595;BME280;1003;48.002;7.788;2022-10-31T12:01:56;98733.25;;;19.21;100.00
5595;BME280;1003;48.002;7.788;2022-10-31T12:04:37;98707.94;;;19.18;100.00
5595;BME280;1003;48.002;7.788;2022-10-31T12:07:06;98681.66;;;19.17;100.00
5595;BME280;1003;48.002;7.788;2022-10-31T12:09:36;98647.28;;;19.08;100.00
5595;BME280;1003;48.002;7.788;2022-10-31T12:12:37;98611.81;;;18.90;100.00
5595;BME280;1003;48.002;7.788;2022-10-31T12:15:30;98599.13;;;18.88;100.00
5595;BME280;1003;48.002;7.788;2022-10-31T12:18:28;98601.44;;;18.77;100.00
5595;BME280;1003;48.002;7.788;2022-10-31T12:21:27;98633.63;;;18.78;100.00
5595;BME280;1003;48.002;7.788;2022-10-31T12:24:14;98649.69;;;18.62;100.00
5595;BME280;1003;48.002;7.788;2022-10-31T12:26:54;98667.72;;;18.75;100.00
5595;BME280;1003;48.002;7.788;2022-10-31T12:29:42;98674.34;;;18.78;100.00
5595;BME280;1003;48.002;7.788;2022-10-31T12:32:28;98650.25;;;18.85;100.00
5595;BME280;1003;48.002;7.788;2022-10-31T12:35:25;98626.16;;;18.75;100.00
5595;BME280;1003;48.002;7.788;2022-10-31T12:38:19;98600.94;;;18.86;100.00
5595;BME280;1003;48.002;7.788;2022-10-31T12:41:17;98570.63;;;18.97;100.00
5595;BME280;1003;48.002;7.788;2022-10-31T12:43:55;98563.47;;;18.88;100.00
5595;BME280;1003;48.002;7.788;2022-10-31T12:46:46;98551.25;;;18.95;100.00
5595;BME280;1003;48.002;7.788;2022-10-31T12:49:46;98555.09;;;19.02;100.00
5595;BME280;1003;48.002;7.788;2022-10-31T12:52:34;98533.44;;;18.95;100.00
5595;BME280;1003;48.002;7.788;2022-10-31T12:55:20;98506.00;;;19.00;100.00
5595;BME280;1003;48.002;7.788;2022-10-31T12:57:57;98468.03;;;18.95;100.00
5595;BME280;1003;48.002;7.788;2022-10-31T13:00:27;98449.25;;;18.82;100.00
5595;BME280;1003;48.002;7.788;2022-10-31T13:03:02;98465.28;;;18.84;100.00
5595;BME280;1003;48.002;7.788;2022-10-31T13:05:41;98458.94;;;18.75;100.00
5595;BME280;1003;48.002;7.788;2022-10-31T13:08:15;98469.69;;;18.65;100.00
5595;BME280;1003;48.002;7.788;2022-10-31T13:10:51;98476.91;;;18.56;100.00
5595;BME280;1003;48.002;7.788;2022-10-31T13:13:23;98497.59;;;18.50;100.00
5595;BME280;1003;48.002;7.788;2022-10-31T13:15:57;98511.22;;;18.49;100.00
5595;BME280;1003;48.002;7.788;2022-10-31T13:18:31;98500.97;;;18.51;100.00
5595;BME280;1003;48.002;7.788;2022-10-31T13:21:07;98500.09;;;18.68;100.00
5595;BME280;1003;48.002;7.788;2022-10-31T13:23:37;98514.03;;;18.92;100.00
5595;BME280;1003;48.002;7.788;2022-10-31T13:26:14;98502.69;;;18.98;100.00
5595;BME280;1003;48.002;7.788;2022-10-31T13:28:47;98477.50;;;19.23;100.00
5595;BME280;1003;48.002;7.788;2022-10-31T13:31:15;98455.88;;;19.45;100.00
5595;BME280;1003;48.002;7.788;2022-10-31T13:33:49;98431.97;;;19.61;100.00
5595;BME280;1003;48.002;7.788;2022-10-31T13:36:27;98400.91;;;19.83;100.00
5595;BME280;1003;48.002;7.788;2022-10-31T13:39:05;98385.78;;;19.95;100.00
5595;BME280;1003;48.002;7.788;2022-10-31T13:41:46;98374.13;;;19.90;100.00
5595;BME280;1003;48.002;7.788;2022-10-31T13:44:19;98381.88;;;19.89;100.00